Time;durP1;ratioP1;P1;durP2;ratioP2;P2;SDS_P1;SDS_P2;PMS_P1;PMS_P2;Temp;Humidity;BMP_temperature;BMP_pressure;BME280_temperature;BME280_humidity;BME280_pressure;Samples;Min_cycle;Max_cycle;Signal;HPM_P1;HPM_P2
2023/03/06 00:00:32;;;;;;;10.67;7.07;;;2.50;99.90;;;;;;5032910;28;20229;-76
2023/03/06 00:02:58;;;;;;;8.98;6.85;;;2.50;99.90;;;;;;5036477;28;20205;-76
2023/03/06 00:05:24;;;;;;;10.68;7.78;;;2.50;99.90;;;;;;5032167;28;20546;-75
2023/03/06 00:07:50;;;;;;;8.53;6.53;;;2.60;99.90;;;;;;5032949;28;20626;-76
2023/03/06 00:10:22;;;;;;;11.63;7.10;;;2.50;99.90;;;;;;5033608;28;20207;-76
2023/03/06 00:12:47;;;;;;;11.10;7.20;;;2.50;99.90;;;;;;5029681;28;20557;-76
2023/03/06 00:15:13;;;;;;;9.70;6.73;;;2.50;99.90;;;;;;5032203;28;20206;-76
2023/03/06 00:17:39;;;;;;;10.27;6.97;;;2.50;99.90;;;;;;5026171;28;20176;-77
2023/03/06 00:20:07;;;;;;;10.35;7.78;;;2.50;99.90;;;;;;5030723;28;20223;-76
2023/03/06 00:22:33;;;;;;;9.15;7.05;;;2.50;99.90;;;;;;5033718;28;20227;-76
2023/03/06 00:24:58;;;;;;;8.45;6.97;;;2.40;99.90;;;;;;5039256;28;20212;-76
2023/03/06 00:27:25;;;;;;;8.37;7.00;;;2.50;99.90;;;;;;5031824;28;20721;-76
2023/03/06 00:29:58;;;;;;;14.35;8.70;;;2.40;99.90;;;;;;5027030;28;20296;-76
2023/03/06 00:32:25;;;;;;;12.90;7.45;;;2.40;99.90;;;;;;5031101;28;20187;-77
2023/03/06 00:34:52;;;;;;;10.57;7.60;;;2.40;99.90;;;;;;5031679;28;20742;-76
2023/03/06 00:37:18;;;;;;;10.00;7.27;;;2.30;99.90;;;;;;5042357;28;20448;-77
2023/03/06 00:39:44;;;;;;;11.80;8.02;;;2.30;99.90;;;;;;5030540;28;20706;-77
2023/03/06 00:42:10;;;;;;;10.00;7.50;;;2.30;99.90;;;;;;5033659;28;20203;-77
2023/03/06 00:44:35;;;;;;;10.37;7.27;;;2.30;99.90;;;;;;5023995;28;20176;-77
2023/03/06 00:47:01;;;;;;;11.33;7.30;;;2.30;99.90;;;;;;5045608;28;20338;-77
2023/03/06 00:49:26;;;;;;;11.13;7.80;;;2.30;99.90;;;;;;5032687;28;20290;-78
2023/03/06 00:51:52;;;;;;;10.00;7.85;;;2.30;99.90;;;;;;5035432;28;20197;-78
2023/03/06 00:54:17;;;;;;;8.63;6.97;;;2.30;99.90;;;;;;5034954;28;20239;-77
2023/03/06 00:56:43;;;;;;;8.98;7.18;;;2.30;99.90;;;;;;5035008;28;20184;-78
2023/03/06 00:59:10;;;;;;;11.17;6.93;;;2.30;99.90;;;;;;5043852;28;20694;-78
2023/03/06 01:01:35;;;;;;;9.20;6.97;;;2.40;99.90;;;;;;5033508;28;20198;-78
2023/03/06 01:04:01;;;;;;;13.52;8.13;;;2.40;99.90;;;;;;5035303;28;20211;-78
2023/03/06 01:06:27;;;;;;;12.90;8.00;;;2.30;99.90;;;;;;5039141;28;20179;-77
2023/03/06 01:08:52;;;;;;;10.40;7.67;;;2.40;99.90;;;;;;5037088;28;20227;-78
2023/03/06 01:11:18;;;;;;;11.53;8.87;;;2.40;99.90;;;;;;5039359;28;20188;-77
2023/03/06 01:13:44;;;;;;;14.00;7.93;;;2.40;99.90;;;;;;5038383;28;20196;-77
2023/03/06 01:16:13;;;;;;;11.97;9.03;;;2.40;99.90;;;;;;5033566;28;20185;-77
2023/03/06 01:18:38;;;;;;;14.23;9.80;;;2.30;99.90;;;;;;5030933;28;20209;-76
2023/03/06 01:21:05;;;;;;;14.07;8.82;;;2.20;99.90;;;;;;5031194;28;20177;-76
2023/03/06 01:23:30;;;;;;;11.52;8.20;;;2.10;99.90;;;;;;5030819;28;20213;-76
2023/03/06 01:25:56;;;;;;;12.67;9.47;;;2.10;99.90;;;;;;5033950;28;20287;-77
2023/03/06 01:28:22;;;;;;;15.13;10.07;;;2.10;99.90;;;;;;5032452;28;20249;-77
2023/03/06 01:30:47;;;;;;;15.82;11.25;;;2.10;99.90;;;;;;5039294;28;20173;-77
2023/03/06 01:33:13;;;;;;;14.93;10.47;;;2.30;99.90;;;;;;5040506;28;20299;-76
2023/03/06 01:35:38;;;;;;;17.80;10.67;;;2.40;99.90;;;;;;5041633;28;20542;-76
2023/03/06 01:38:04;;;;;;;17.50;10.47;;;2.40;99.90;;;;;;5044111;28;20217;-77
2023/03/06 01:40:32;;;;;;;19.23;11.23;;;2.40;99.90;;;;;;5045333;28;20262;-76
2023/03/06 01:42:58;;;;;;;19.20;13.40;;;2.40;99.90;;;;;;5033547;28;20232;-78
2023/03/06 01:45:23;;;;;;;16.60;11.47;;;2.30;99.90;;;;;;5035247;28;20219;-76
2023/03/06 01:47:49;;;;;;;15.07;11.80;;;2.30;99.90;;;;;;5036569;28;20173;-76
2023/03/06 01:50:14;;;;;;;16.33;11.10;;;2.30;99.90;;;;;;5031434;28;20547;-76
2023/03/06 01:52:47;;;;;;;19.60;12.43;;;2.30;99.90;;;;;;5037332;28;20180;-76
2023/03/06 01:55:18;;;;;;;18.10;13.00;;;2.30;99.90;;;;;;5035438;28;20168;-76
2023/03/06 01:57:46;;;;;;;17.13;13.27;;;2.40;99.90;;;;;;5037181;28;20259;-76
2023/03/06 02:00:18;;;;;;;18.00;13.47;;;2.40;99.90;;;;;;5028633;28;20204;-76
2023/03/06 02:03:02;;;;;;;17.37;12.83;;;2.30;99.90;;;;;;5039298;28;20220;-76
2023/03/06 02:05:28;;;;;;;22.37;14.23;;;2.20;99.90;;;;;;5035418;28;20629;-76
2023/03/06 02:07:54;;;;;;;18.23;12.87;;;2.10;99.90;;;;;;5031183;28;20204;-77
2023/03/06 02:10:21;;;;;;;20.93;14.00;;;2.10;99.90;;;;;;5031877;28;20209;-76
2023/03/06 02:12:49;;;;;;;22.13;13.07;;;2.20;99.90;;;;;;5037778;28;20185;-77
2023/03/06 02:15:18;;;;;;;19.93;13.67;;;2.20;99.90;;;;;;5034033;28;20308;-77
2023/03/06 02:17:45;;;;;;;18.03;13.27;;;2.20;99.90;;;;;;5032098;28;20173;-77
2023/03/06 02:20:26;;;;;;;22.57;14.33;;;2.10;99.90;;;;;;5032347;28;20598;-77
2023/03/06 02:23:07;;;;;;;20.67;13.43;;;2.10;99.90;;;;;;5032905;28;20204;-76
2023/03/06 02:25:47;;;;;;;20.07;12.70;;;2.10;99.90;;;;;;5028818;28;20180;-76
2023/03/06 02:28:17;;;;;;;17.90;13.00;;;2.10;99.90;;;;;;5024882;28;20243;-76
2023/03/06 02:30:45;;;;;;;18.90;11.27;;;2.10;99.90;;;;;;5033637;28;20180;-75
2023/03/06 02:33:13;;;;;;;17.87;13.10;;;2.20;99.90;;;;;;5028811;28;20288;-75
2023/03/06 02:35:42;;;;;;;20.33;13.60;;;2.30;99.90;;;;;;5029876;28;20663;-75
2023/03/06 02:38:12;;;;;;;18.17;12.63;;;2.20;99.90;;;;;;5033477;28;20263;-76
2023/03/06 02:40:38;;;;;;;19.97;14.13;;;2.10;99.90;;;;;;5023551;28;20196;-76
2023/03/06 02:43:04;;;;;;;17.33;12.63;;;2.10;99.90;;;;;;5040280;28;20188;-75
2023/03/06 02:45:38;;;;;;;20.87;14.17;;;2.10;99.90;;;;;;5032820;28;20525;-76
2023/03/06 02:48:04;;;;;;;19.07;13.03;;;2.10;99.90;;;;;;5027596;28;20168;-75
2023/03/06 02:50:30;;;;;;;17.57;12.40;;;2.00;99.90;;;;;;5029214;28;20234;-75
2023/03/06 02:52:56;;;;;;;20.73;13.77;;;1.90;99.90;;;;;;5035846;28;20654;-76
2023/03/06 02:55:22;;;;;;;19.47;13.27;;;2.00;99.90;;;;;;5030753;28;20200;-76
2023/03/06 02:57:48;;;;;;;21.70;13.37;;;2.00;99.90;;;;;;5030496;28;20263;-76
2023/03/06 03:00:14;;;;;;;19.10;12.80;;;2.00;99.90;;;;;;5038920;28;20199;-76
2023/03/06 03:02:40;;;;;;;20.33;13.40;;;2.00;99.90;;;;;;5033809;28;20265;-76
2023/03/06 03:05:06;;;;;;;19.50;13.30;;;2.00;99.90;;;;;;5031605;28;20181;-75
2023/03/06 03:07:32;;;;;;;21.00;13.17;;;2.00;99.90;;;;;;5031021;28;20644;-75
2023/03/06 03:09:58;;;;;;;18.30;12.93;;;1.80;99.90;;;;;;5034136;28;20211;-75
2023/03/06 03:12:23;;;;;;;20.80;13.40;;;1.80;99.90;;;;;;5025006;28;20180;-76
2023/03/06 03:14:49;;;;;;;19.30;12.77;;;1.80;99.90;;;;;;5030443;28;20181;-76
2023/03/06 03:17:15;;;;;;;19.47;12.77;;;1.70;99.90;;;;;;5031613;28;20709;-75
2023/03/06 03:19:40;;;;;;;17.80;12.83;;;1.70;99.90;;;;;;5033726;28;20219;-75
2023/03/06 03:22:06;;;;;;;20.93;13.30;;;1.60;99.90;;;;;;5035201;28;20177;-75
2023/03/06 03:24:32;;;;;;;21.33;13.33;;;1.60;99.90;;;;;;5033233;28;20230;-76
2023/03/06 03:26:57;;;;;;;16.37;11.80;;;1.50;99.90;;;;;;5030770;28;20174;-76
2023/03/06 03:29:23;;;;;;;20.50;13.63;;;1.40;99.90;;;;;;5033748;28;20330;-76
2023/03/06 03:31:49;;;;;;;21.13;13.67;;;1.40;99.90;;;;;;5032649;28;20223;-75
2023/03/06 03:34:15;;;;;;;19.47;13.57;;;1.40;99.90;;;;;;5034955;28;20235;-74
2023/03/06 03:36:40;;;;;;;22.00;13.20;;;1.40;99.90;;;;;;5027517;28;20629;-75
2023/03/06 03:39:06;;;;;;;20.10;12.30;;;1.40;99.90;;;;;;5035525;28;20218;-75
2023/03/06 03:41:32;;;;;;;17.83;13.17;;;1.40;99.90;;;;;;5038289;28;20180;-74
2023/03/06 03:43:58;;;;;;;21.00;13.73;;;1.40;99.90;;;;;;5030398;28;20193;-76
2023/03/06 03:46:24;;;;;;;20.73;13.53;;;1.30;99.90;;;;;;5026103;28;20184;-75
2023/03/06 03:48:50;;;;;;;17.27;12.47;;;1.30;99.90;;;;;;5031637;28;20330;-75
2023/03/06 03:51:15;;;;;;;20.83;13.37;;;1.20;99.90;;;;;;5035497;28;20255;-74
2023/03/06 03:53:42;;;;;;;22.87;13.70;;;1.30;99.90;;;;;;5035112;28;20191;-74
2023/03/06 03:56:07;;;;;;;19.30;13.77;;;1.30;99.90;;;;;;5029202;28;20172;-75
2023/03/06 03:58:33;;;;;;;22.47;12.63;;;1.40;99.90;;;;;;5031426;28;20573;-74
2023/03/06 04:00:59;;;;;;;23.47;13.43;;;1.40;99.90;;;;;;5036510;28;20191;-75
2023/03/06 04:03:25;;;;;;;22.27;13.63;;;1.30;99.90;;;;;;5032552;28;20197;-74
2023/03/06 04:05:53;;;;;;;22.50;14.00;;;1.30;99.90;;;;;;5034921;28;20173;-75
2023/03/06 04:08:19;;;;;;;18.37;13.17;;;1.30;99.90;;;;;;5026704;28;20187;-76
2023/03/06 04:10:45;;;;;;;21.67;13.90;;;1.40;99.90;;;;;;5032985;28;20603;-76
2023/03/06 04:13:10;;;;;;;21.63;14.77;;;1.40;99.90;;;;;;5028485;28;20255;-75
2023/03/06 04:15:36;;;;;;;19.73;13.20;;;1.40;99.90;;;;;;5038656;28;20181;-75
2023/03/06 04:18:01;;;;;;;23.30;14.27;;;1.50;99.90;;;;;;5035480;28;20260;-76
2023/03/06 04:20:27;;;;;;;19.37;13.73;;;1.50;99.90;;;;;;5034890;28;20197;-75
2023/03/06 04:22:53;;;;;;;19.00;14.07;;;1.50;99.90;;;;;;5044036;28;20624;-75
2023/03/06 04:25:18;;;;;;;24.30;13.80;;;1.50;99.90;;;;;;5036800;28;20443;-77
2023/03/06 04:27:44;;;;;;;21.47;14.13;;;1.50;99.90;;;;;;5035457;28;20215;-77
2023/03/06 04:30:10;;;;;;;19.40;13.87;;;1.50;99.90;;;;;;5042983;28;20198;-77
2023/03/06 04:32:36;;;;;;;23.90;14.30;;;1.50;99.90;;;;;;5035102;28;20187;-76
2023/03/06 04:35:02;;;;;;;19.07;13.83;;;1.50;99.90;;;;;;5031562;28;20188;-76
2023/03/06 04:37:28;;;;;;;21.03;13.80;;;1.50;99.90;;;;;;5030347;28;20189;-76
2023/03/06 04:39:54;;;;;;;22.70;14.97;;;1.40;99.90;;;;;;5035594;28;20201;-76
2023/03/06 04:42:19;;;;;;;21.23;13.80;;;1.40;99.90;;;;;;5044299;28;20200;-75
2023/03/06 04:44:45;;;;;;;19.57;13.73;;;1.30;99.90;;;;;;5028096;28;20181;-76
2023/03/06 04:47:11;;;;;;;20.30;14.30;;;1.20;99.90;;;;;;5035804;28;20172;-75
2023/03/06 04:49:40;;;;;;;19.93;14.53;;;1.20;99.90;;;;;;5034366;28;20201;-76
2023/03/06 04:52:05;;;;;;;25.83;13.53;;;1.30;99.90;;;;;;5032621;28;20230;-75
2023/03/06 04:54:31;;;;;;;21.00;13.77;;;1.30;99.90;;;;;;5040519;28;20181;-74
2023/03/06 04:56:57;;;;;;;20.00;13.37;;;1.20;99.90;;;;;;5038541;28;20186;-75
2023/03/06 04:59:23;;;;;;;21.33;14.70;;;1.30;99.90;;;;;;5031773;28;20197;-76
2023/03/06 05:01:48;;;;;;;20.33;13.87;;;1.40;99.90;;;;;;5041411;28;20181;-75
2023/03/06 05:04:14;;;;;;;23.53;13.93;;;1.40;99.90;;;;;;5038084;28;20231;-75
2023/03/06 05:06:40;;;;;;;22.27;14.77;;;1.40;99.90;;;;;;5043143;28;20181;-76
2023/03/06 05:09:05;;;;;;;25.93;15.80;;;1.40;99.90;;;;;;5030030;28;20201;-76
2023/03/06 05:11:31;;;;;;;19.33;13.33;;;1.50;99.90;;;;;;5032865;28;20238;-75
2023/03/06 05:13:56;;;;;;;22.80;15.27;;;1.50;99.90;;;;;;5036037;28;20240;-76
2023/03/06 05:16:22;;;;;;;21.63;13.77;;;1.50;99.90;;;;;;5030238;28;20192;-75
2023/03/06 05:18:47;;;;;;;22.40;14.83;;;1.50;99.90;;;;;;5027583;28;20211;-75
2023/03/06 05:21:13;;;;;;;24.23;14.27;;;1.50;99.90;;;;;;5034186;28;20179;-75
2023/03/06 05:23:39;;;;;;;24.27;15.23;;;1.40;99.90;;;;;;5034408;28;20254;-75
2023/03/06 05:26:07;;;;;;;19.33;13.40;;;1.40;99.90;;;;;;5033216;28;20231;-75
2023/03/06 05:28:33;;;;;;;21.53;14.43;;;1.40;99.90;;;;;;5027923;28;20201;-77
2023/03/06 05:30:59;;;;;;;22.17;14.53;;;1.40;99.90;;;;;;5031464;28;20242;-75
2023/03/06 05:33:25;;;;;;;20.53;14.27;;;1.30;99.90;;;;;;5031636;28;20189;-76
2023/03/06 05:35:51;;;;;;;20.63;14.93;;;1.30;99.90;;;;;;5040174;28;20737;-75
2023/03/06 05:38:17;;;;;;;21.60;13.37;;;1.30;99.90;;;;;;5026602;28;20187;-76
2023/03/06 05:40:43;;;;;;;22.47;14.77;;;1.40;99.90;;;;;;5025252;28;20193;-77
2023/03/06 05:43:10;;;;;;;23.17;14.23;;;1.40;99.90;;;;;;5026488;28;20275;-75
2023/03/06 05:45:37;;;;;;;21.47;14.73;;;1.40;99.90;;;;;;5028961;28;20178;-77
2023/03/06 05:48:03;;;;;;;21.47;13.93;;;1.30;99.90;;;;;;5026368;28;20550;-75
2023/03/06 05:50:29;;;;;;;19.53;13.37;;;1.20;99.90;;;;;;5023629;28;20558;-75
2023/03/06 05:52:54;;;;;;;20.97;13.57;;;1.30;99.90;;;;;;5033230;28;20184;-75
2023/03/06 05:55:21;;;;;;;19.37;13.93;;;1.30;99.90;;;;;;5028437;28;20234;-75
2023/03/06 05:57:47;;;;;;;21.63;13.97;;;1.40;99.90;;;;;;5025705;28;20211;-78
2023/03/06 06:00:14;;;;;;;18.00;13.63;;;1.40;99.90;;;;;;5034239;28;20247;-76
2023/03/06 06:02:40;;;;;;;18.50;13.37;;;1.50;99.90;;;;;;5027487;28;20236;-76
2023/03/06 06:05:06;;;;;;;21.53;14.23;;;1.40;99.90;;;;;;5025963;28;20261;-76
2023/03/06 06:07:32;;;;;;;21.93;14.67;;;1.50;99.90;;;;;;5019757;28;20230;-76
2023/03/06 06:09:58;;;;;;;19.33;14.37;;;1.40;99.90;;;;;;5025456;28;20276;-76
2023/03/06 06:12:23;;;;;;;22.90;15.43;;;1.40;99.90;;;;;;5031905;28;20188;-76
2023/03/06 06:14:49;;;;;;;23.33;16.63;;;1.40;99.90;;;;;;5026940;28;20181;-76
2023/03/06 06:17:15;;;;;;;19.80;13.73;;;1.30;99.90;;;;;;5026968;28;20184;-77
2023/03/06 06:19:41;;;;;;;21.90;14.93;;;1.40;99.90;;;;;;5033256;28;20227;-78
2023/03/06 06:22:07;;;;;;;24.13;15.33;;;1.50;99.90;;;;;;5029407;28;20208;-79
2023/03/06 06:24:33;;;;;;;21.33;14.03;;;1.60;99.90;;;;;;5026420;28;20183;-76
2023/03/06 06:26:58;;;;;;;23.10;14.23;;;1.60;99.90;;;;;;5028895;28;20185;-76
2023/03/06 06:29:25;;;;;;;22.47;14.27;;;1.70;99.90;;;;;;5031599;28;20227;-76
2023/03/06 06:31:52;;;;;;;23.03;14.20;;;1.70;99.90;;;;;;5029088;28;20219;-78
2023/03/06 06:34:18;;;;;;;20.97;13.30;;;1.80;99.90;;;;;;5031340;28;20613;-76
2023/03/06 06:36:44;;;;;;;20.93;15.07;;;1.80;99.90;;;;;;5022059;28;20279;-76
2023/03/06 06:39:13;;;;;;;22.63;13.70;;;1.80;99.90;;;;;;5037414;28;20193;-75
2023/03/06 06:41:38;;;;;;;24.60;14.50;;;1.90;99.90;;;;;;5030335;28;20199;-76
2023/03/06 06:44:08;;;;;;;21.20;13.90;;;1.90;99.90;;;;;;5026882;28;20207;-77
2023/03/06 06:46:34;;;;;;;21.80;14.50;;;2.00;99.90;;;;;;5030900;28;20198;-75
2023/03/06 06:49:01;;;;;;;22.20;14.43;;;2.00;99.90;;;;;;5033160;28;20203;-77
2023/03/06 06:51:31;;;;;;;22.50;14.37;;;2.10;99.90;;;;;;5026644;28;20191;-76
2023/03/06 06:53:57;;;;;;;24.47;15.87;;;2.20;99.90;;;;;;5032509;28;20184;-77
2023/03/06 06:56:23;;;;;;;20.27;14.17;;;2.30;99.90;;;;;;5034734;28;20188;-77
2023/03/06 06:58:51;;;;;;;20.40;14.30;;;2.40;99.90;;;;;;5031008;28;20206;-74
2023/03/06 07:01:17;;;;;;;21.10;14.00;;;2.40;99.90;;;;;;5034444;28;20180;-73
2023/03/06 07:03:43;;;;;;;21.33;13.67;;;2.50;99.90;;;;;;5043720;28;20189;-74
2023/03/06 07:06:08;;;;;;;20.75;13.88;;;2.70;99.90;;;;;;5033224;28;20720;-77
2023/03/06 07:08:34;;;;;;;17.27;12.77;;;2.70;99.90;;;;;;5030904;28;20207;-75
2023/03/06 07:11:08;;;;;;;18.02;13.00;;;2.90;99.90;;;;;;5037616;28;20181;-76
2023/03/06 07:13:34;;;;;;;17.70;12.63;;;3.20;99.90;;;;;;5033648;28;20215;-75
2023/03/06 07:16:00;;;;;;;19.17;13.60;;;3.30;99.90;;;;;;5030810;28;20204;-75
2023/03/06 07:18:25;;;;;;;19.80;14.77;;;3.50;99.90;;;;;;5029868;28;20227;-75
2023/03/06 07:20:53;;;;;;;18.17;13.80;;;3.50;99.90;;;;;;5030905;28;20219;-75
2023/03/06 07:23:18;;;;;;;17.52;12.82;;;3.50;99.90;;;;;;5028860;28;20209;-75
2023/03/06 07:25:45;;;;;;;20.35;13.32;;;3.70;99.90;;;;;;5034987;28;20302;-75
2023/03/06 07:28:11;;;;;;;19.85;13.57;;;3.70;99.90;;;;;;5026229;28;20648;-75
2023/03/06 07:30:38;;;;;;;19.98;13.00;;;3.80;99.90;;;;;;5022547;28;20173;-75
2023/03/06 07:33:04;;;;;;;19.15;13.52;;;3.80;99.90;;;;;;5030695;28;20173;-74
2023/03/06 07:35:30;;;;;;;18.95;13.75;;;3.80;99.90;;;;;;5029441;28;20196;-74
2023/03/06 07:37:56;;;;;;;21.92;14.10;;;3.80;99.90;;;;;;5026354;28;20641;-75
2023/03/06 07:40:22;;;;;;;19.10;12.98;;;3.90;99.90;;;;;;5025971;28;20287;-74
2023/03/06 07:42:47;;;;;;;20.35;15.35;;;4.00;99.90;;;;;;5024859;28;20251;-74
2023/03/06 07:45:13;;;;;;;18.95;13.63;;;4.10;99.90;;;;;;5027918;28;20177;-74
2023/03/06 07:47:39;;;;;;;20.45;13.88;;;4.10;99.90;;;;;;5029602;28;20664;-75
2023/03/06 07:50:06;;;;;;;18.73;13.15;;;4.10;99.90;;;;;;5028924;28;20207;-74
2023/03/06 07:52:32;;;;;;;19.02;13.27;;;4.20;99.90;;;;;;5022224;28;20219;-76
2023/03/06 07:54:58;;;;;;;22.65;14.00;;;4.30;99.90;;;;;;5025759;28;20188;-75
2023/03/06 07:57:24;;;;;;;19.38;13.43;;;4.50;99.90;;;;;;5032667;28;20192;-75
2023/03/06 07:59:50;;;;;;;16.80;12.52;;;4.50;99.90;;;;;;5024625;28;20216;-74
2023/03/06 08:02:15;;;;;;;21.45;13.93;;;4.60;99.90;;;;;;5027832;28;20527;-75
2023/03/06 08:04:41;;;;;;;18.65;13.25;;;4.70;99.90;;;;;;5026909;28;20679;-76
2023/03/06 08:07:06;;;;;;;22.95;13.35;;;4.80;99.90;;;;;;5032889;28;20168;-75
2023/03/06 08:09:33;;;;;;;20.75;14.38;;;4.60;99.90;;;;;;5027934;28;20189;-75
2023/03/06 08:11:59;;;;;;;22.45;13.43;;;4.80;99.90;;;;;;5029067;28;20684;-75
2023/03/06 08:14:25;;;;;;;19.40;13.10;;;4.80;99.90;;;;;;5027509;28;20320;-75
2023/03/06 08:16:50;;;;;;;22.38;14.60;;;4.90;99.90;;;;;;5030758;28;20580;-75
2023/03/06 08:19:16;;;;;;;23.25;13.20;;;4.80;99.90;;;;;;5028507;28;20218;-75
2023/03/06 08:21:42;;;;;;;19.58;14.05;;;4.80;99.90;;;;;;5028665;28;20555;-74
2023/03/06 08:24:08;;;;;;;21.80;13.88;;;4.90;99.90;;;;;;5026206;28;20275;-74
2023/03/06 08:26:34;;;;;;;21.45;13.98;;;5.00;99.90;;;;;;5023917;28;20204;-75
2023/03/06 08:29:01;;;;;;;22.27;14.88;;;5.20;99.90;;;;;;5025977;28;20192;-76
2023/03/06 08:31:41;;;;;;;19.38;12.95;;;5.40;99.90;;;;;;5030498;28;20660;-76
2023/03/06 08:34:19;;;;;;;21.02;14.05;;;5.30;99.90;;;;;;5030002;28;20265;-75
2023/03/06 08:36:45;;;;;;;20.95;14.23;;;5.60;99.90;;;;;;5027894;28;20188;-74
2023/03/06 08:39:11;;;;;;;17.17;12.25;;;5.80;99.90;;;;;;5024331;28;20207;-75
2023/03/06 08:41:37;;;;;;;19.20;13.00;;;6.00;99.90;;;;;;5028203;28;20180;-74
2023/03/06 08:44:03;;;;;;;18.85;12.15;;;5.90;99.90;;;;;;5033270;28;20202;-74
2023/03/06 08:46:29;;;;;;;16.33;12.82;;;6.00;99.90;;;;;;5028690;28;20214;-74
2023/03/06 08:48:55;;;;;;;13.60;9.90;;;6.00;99.90;;;;;;5027952;28;20205;-77
2023/03/06 08:51:22;;;;;;;16.73;12.30;;;6.00;99.90;;;;;;5030989;28;20184;-76
2023/03/06 08:53:48;;;;;;;18.20;12.93;;;6.00;99.90;;;;;;5028835;28;20647;-74
2023/03/06 08:56:19;;;;;;;16.83;12.52;;;5.90;99.90;;;;;;5026468;28;20246;-74
2023/03/06 08:58:45;;;;;;;17.75;12.10;;;5.80;99.90;;;;;;5028459;28;20251;-73
2023/03/06 09:01:16;;;;;;;17.80;12.32;;;5.90;99.90;;;;;;5031350;28;20542;-74
2023/03/06 09:03:42;;;;;;;18.85;13.63;;;5.90;99.90;;;;;;5023207;28;20231;-74
2023/03/06 09:06:07;;;;;;;18.38;12.57;;;6.10;99.90;;;;;;5034440;28;20264;-75
2023/03/06 09:08:33;;;;;;;15.48;11.90;;;6.30;99.90;;;;;;5029885;28;20235;-75
2023/03/06 09:10:58;;;;;;;14.63;10.98;;;6.40;99.90;;;;;;5030241;28;20271;-74
2023/03/06 09:13:24;;;;;;;16.80;11.57;;;6.80;99.90;;;;;;5034347;28;20235;-74
2023/03/06 09:15:50;;;;;;;15.95;12.75;;;7.10;99.90;;;;;;5027335;28;20189;-74
2023/03/06 09:18:15;;;;;;;17.45;11.50;;;7.30;99.90;;;;;;5026106;28;20211;-74
2023/03/06 09:20:41;;;;;;;13.82;8.55;;;7.30;99.90;;;;;;5029301;28;20234;-74
2023/03/06 09:23:07;;;;;;;13.68;8.75;;;7.50;99.90;;;;;;5027305;28;20208;-75
2023/03/06 09:25:33;;;;;;;18.17;13.45;;;7.50;99.90;;;;;;5035801;28;20201;-74
2023/03/06 09:27:58;;;;;;;18.13;11.82;;;7.30;99.90;;;;;;5027974;28;20184;-74
2023/03/06 09:30:24;;;;;;;20.27;13.63;;;7.20;99.90;;;;;;5029651;28;20215;-75
2023/03/06 09:32:49;;;;;;;17.27;13.57;;;7.20;99.90;;;;;;5028709;28;20188;-74
2023/03/06 09:35:17;;;;;;;18.48;12.75;;;7.30;99.90;;;;;;5027738;28;20184;-75
2023/03/06 09:37:43;;;;;;;21.20;14.45;;;7.50;99.90;;;;;;5029277;28;20651;-75
2023/03/06 09:40:29;;;;;;;19.10;13.50;;;7.50;99.90;;;;;;5027886;28;20215;-74
2023/03/06 09:42:55;;;;;;;21.25;13.30;;;7.50;99.90;;;;;;5039160;28;20227;-75
2023/03/06 09:45:21;;;;;;;16.98;13.27;;;7.80;99.90;;;;;;5025090;28;20584;-76
2023/03/06 09:48:21;;;;;;;17.75;11.95;;;7.90;99.90;;;;;;5033198;28;20173;-74
2023/03/06 09:51:01;;;;;;;18.92;12.18;;;7.80;99.90;;;;;;5008595;28;20221;-75
2023/03/06 09:53:43;;;;;;;16.38;11.88;;;8.10;99.90;;;;;;5027978;28;20247;-74
2023/03/06 09:56:21;;;;;;;16.58;11.88;;;8.40;99.60;;;;;;5029256;28;20564;-75
2023/03/06 09:58:54;;;;;;;11.20;8.60;;;8.60;97.50;;;;;;5034361;28;20205;-74
2023/03/06 10:01:26;;;;;;;14.43;10.60;;;9.00;96.30;;;;;;5032738;28;20552;-75
2023/03/06 10:04:21;;;;;;;13.70;10.63;;;9.80;95.20;;;;;;5038408;28;20209;-75
2023/03/06 10:06:55;;;;;;;15.52;12.32;;;10.80;92.70;;;;;;5023479;28;20195;-76
2023/03/06 10:09:37;;;;;;;12.85;10.18;;;11.20;90.40;;;;;;5025785;28;20289;-76
2023/03/06 10:12:14;;;;;;;11.98;10.05;;;11.20;89.20;;;;;;5032088;28;20183;-76
2023/03/06 10:14:45;;;;;;;12.23;8.25;;;11.00;87.80;;;;;;5027458;28;20415;-76
2023/03/06 10:17:22;;;;;;;10.77;7.28;;;10.90;86.20;;;;;;5038017;28;20266;-75
2023/03/06 10:19:48;;;;;;;11.45;8.30;;;10.60;84.90;;;;;;5025897;28;20217;-75
2023/03/06 10:22:17;;;;;;;7.47;4.88;;;10.30;84.10;;;;;;5031700;28;20185;-75
2023/03/06 10:24:48;;;;;;;7.70;6.65;;;9.90;84.30;;;;;;5028581;28;20178;-76
2023/03/06 10:27:20;;;;;;;9.63;7.53;;;9.90;84.60;;;;;;5033293;28;20660;-76
2023/03/06 10:29:54;;;;;;;10.15;7.50;;;10.50;83.00;;;;;;5024718;28;20292;-77
2023/03/06 10:32:45;;;;;;;7.22;6.07;;;11.60;79.80;;;;;;5022496;28;20178;-76
2023/03/06 10:35:17;;;;;;;9.18;7.55;;;12.70;75.80;;;;;;5033844;28;20273;-76
2023/03/06 10:37:43;;;;;;;6.00;5.43;;;13.30;73.50;;;;;;5043602;28;20763;-77
2023/03/06 10:40:37;;;;;;;5.43;4.90;;;14.30;67.60;;;;;;5026950;28;20241;-78
2023/03/06 10:43:09;;;;;;;4.63;4.10;;;14.60;62.30;;;;;;5031962;28;20207;-77
2023/03/06 10:45:46;;;;;;;4.50;3.75;;;14.00;60.10;;;;;;5029009;28;20268;-77
2023/03/06 10:48:27;;;;;;;4.70;4.03;;;13.40;59.70;;;;;;5024434;28;20181;-78
2023/03/06 10:51:09;;;;;;;4.68;4.07;;;13.00;60.00;;;;;;5026894;28;20545;-78
2023/03/06 10:53:35;;;;;;;5.20;3.50;;;12.70;60.10;;;;;;5032562;28;20185;-76
2023/03/06 10:56:01;;;;;;;4.97;4.50;;;12.30;59.60;;;;;;5035898;28;20186;-75
2023/03/06 10:58:31;;;;;;;6.32;3.95;;;12.10;59.60;;;;;;5029792;28;20676;-76
2023/03/06 11:01:17;;;;;;;4.75;3.63;;;11.60;60.30;;;;;;5030892;28;20185;-76
2023/03/06 11:03:42;;;;;;;5.97;5.38;;;10.90;62.20;;;;;;5040871;28;20586;-81
2023/03/06 11:06:13;;;;;;;5.95;4.47;;;10.20;64.80;;;;;;5033294;28;20269;-80
2023/03/06 11:08:42;;;;;;;7.70;4.07;;;10.00;65.30;;;;;;5025197;28;20204;-80
2023/03/06 11:11:14;;;;;;;4.60;4.05;;;10.00;65.70;;;;;;5024638;28;20235;-80
2023/03/06 11:13:42;;;;;;;5.88;5.28;;;10.00;65.50;;;;;;5028410;28;20203;-81
2023/03/06 11:16:31;;;;;;;7.00;6.25;;;9.90;67.50;;;;;;5023321;28;20266;-78
2023/03/06 11:19:16;;;;;;;6.28;5.43;;;9.60;70.60;;;;;;5026447;28;20250;-78
2023/03/06 11:21:42;;;;;;;6.30;4.85;;;9.70;69.50;;;;;;5022299;28;20180;-78
2023/03/06 11:24:19;;;;;;;6.82;6.07;;;10.30;67.30;;;;;;5023757;28;20211;-79
2023/03/06 11:26:55;;;;;;;6.88;5.85;;;11.00;65.50;;;;;;5020986;28;20206;-78
2023/03/06 11:29:42;;;;;;;7.15;6.45;;;11.30;65.90;;;;;;5022584;28;20682;-79
2023/03/06 11:32:15;;;;;;;10.18;6.50;;;11.50;65.10;;;;;;5022008;28;20487;-79
2023/03/06 11:34:49;;;;;;;8.65;6.88;;;11.90;65.20;;;;;;5024674;28;20213;-79
2023/03/06 11:37:24;;;;;;;7.10;6.30;;;12.40;64.30;;;;;;5025672;28;20211;-79
2023/03/06 11:40:08;;;;;;;9.68;8.18;;;12.60;62.70;;;;;;5025693;28;20679;-79
2023/03/06 11:42:38;;;;;;;10.43;7.53;;;12.20;65.10;;;;;;5021176;28;20295;-78
2023/03/06 11:45:18;;;;;;;11.38;9.32;;;11.80;66.20;;;;;;5023739;28;20175;-77
2023/03/06 11:47:53;;;;;;;11.73;8.60;;;11.00;68.10;;;;;;5026517;28;20786;-76
2023/03/06 11:50:32;;;;;;;9.65;8.32;;;10.60;69.30;;;;;;5025055;28;20566;-75
2023/03/06 11:53:17;;;;;;;8.23;6.60;;;10.60;70.00;;;;;;5031938;28;20184;-76
2023/03/06 11:56:22;;;;;;;7.45;5.30;;;10.80;70.50;;;;;;5030736;28;20180;-76
2023/03/06 11:59:02;;;;;;;12.10;8.18;;;10.70;69.80;;;;;;5015847;28;20226;-77
2023/03/06 12:01:43;;;;;;;11.40;8.90;;;10.20;70.70;;;;;;5027811;28;20264;-75
2023/03/06 12:04:36;;;;;;;11.13;8.18;;;9.80;73.70;;;;;;5026598;28;20217;-74
2023/03/06 12:07:20;;;;;;;11.48;7.18;;;9.50;75.10;;;;;;5029278;28;20183;-74
2023/03/06 12:10:03;;;;;;;9.32;5.90;;;9.50;75.40;;;;;;5024262;28;20216;-74
2023/03/06 12:12:53;;;;;;;8.05;6.72;;;9.80;75.10;;;;;;5029283;28;20668;-74
2023/03/06 12:15:18;;;;;;;6.05;4.97;;;10.80;70.40;;;;;;5028889;28;20212;-74
2023/03/06 12:17:44;;;;;;;9.20;6.32;;;11.70;68.10;;;;;;5026015;28;20201;-74
2023/03/06 12:20:09;;;;;;;7.97;7.18;;;12.60;66.00;;;;;;5024945;28;20212;-75
2023/03/06 12:22:52;;;;;;;8.73;7.20;;;13.00;64.30;;;;;;5028369;28;20216;-77
2023/03/06 12:25:36;;;;;;;6.93;5.20;;;13.00;64.10;;;;;;5024749;28;20287;-77
2023/03/06 12:28:30;;;;;;;7.75;6.95;;;12.90;64.30;;;;;;5028852;28;20184;-76
2023/03/06 12:31:11;;;;;;;9.20;7.00;;;12.70;64.40;;;;;;5027989;28;20573;-77
2023/03/06 12:33:46;;;;;;;9.02;7.18;;;12.60;65.10;;;;;;5022359;28;20189;-76
2023/03/06 12:36:31;;;;;;;8.98;7.60;;;13.10;64.50;;;;;;5029755;28;20565;-76
2023/03/06 12:39:36;;;;;;;9.02;8.02;;;14.10;62.70;;;;;;5025000;28;20195;-77
2023/03/06 12:42:17;;;;;;;8.75;7.70;;;14.90;60.30;;;;;;5031241;28;20228;-77
2023/03/06 12:45:26;;;;;;;7.93;6.97;;;15.00;59.60;;;;;;5026232;28;20212;-76
2023/03/06 12:47:55;;;;;;;9.77;7.65;;;14.50;59.90;;;;;;5030359;28;20554;-77
2023/03/06 12:50:31;;;;;;;6.93;6.22;;;13.90;59.60;;;;;;5031634;28;20274;-76